EGLLEGGP

Guest
Details From EGLL - London Heathrow
To EGGP - Liverpool
Flight Number -
Tags decoded
Created
Modified
Stats Distance 157 nm / 290 km
Max Altitude 0 ft / 0 m
Waypoints 3
Social Downloads 0
Likes 0
Share VATSIM

Download

Looking for another format? Having issues loading an existing format? Contact us
Advertisement - Login to hide

Notes

Requested: EGLL KEGUN EGGP

Route

EGLL KEGUN EGGP

ID Type Via Altitude Latitude Longitude Leg Dist Tot Dist Heading (true) Name
O EGLL APT - 0 ft / 0 m 51.47122˚ -0.46098˚ - 0 nm - London Heathrow
KEGUN FIX - 0 ft / 0 m 53.19276˚ -3.15163˚ 142 nm 142 nm 317° / 315° -
O EGGP APT - 0 ft / 0 m 53.33363˚ -2.84977˚ 13 nm 156 nm 52° / 52° Liverpool

Altitude Profile

Advertisement - Login to hide

EGLL

Details ICAO EGLL (LHR)
Name London Heathrow
Region United Kingdom
Timezone Europe/London (UTC+1.0)
Stats Elevation 83 ft / 25 m (AMSL)
Location 51.471218° -0.460978°
Runways 2
Magnetic Variation 0.494° W

METAR

EGLL 261950Z AUTO 06010KT 9999 NCD 22/16 Q1017 NOSIG

Decode

TAF

TAF EGLL 261703Z 2618/2724 07012KT 9999 SCT040 PROB30 TEMPO 2618/2622 07015G25KT PROB30 TEMPO 2622/2712 08015G25KT 3000 +TSRAGS BKN014 BKN045CB PROB40 TEMPO 2712/2718 3000 +TSRAGR BKN014 BKN025CB PROB30 TEMPO 2718/2724 3000 +TSRAGS BKN014 BKN025CB

Decode

Departure Runways

ID Width Length Bearing (true) Bearing (mag) Surface Threshold Offset Overrun Length
09L 164 ft / 50 m 12,811 ft / 3,905 m 89.64° 90.13° Asphalt 1,004 ft / 306 m 0 ft / 0 m
09R 164 ft / 50 m 12,019 ft / 3,663 m 89.67° 90.16° Asphalt 1,007 ft / 307 m 0 ft / 0 m
27L 164 ft / 50 m 12,019 ft / 3,663 m 269.71° 270.20° Asphalt 0 ft / 0 m 69 ft / 21 m
27R 164 ft / 50 m 12,811 ft / 3,905 m 269.69° 270.18° Asphalt 0 ft / 0 m 69 ft / 21 m

EGGP

Details ICAO EGGP (LPL)
Name Liverpool
Region United Kingdom
Timezone Europe/London (UTC+1.0)
Stats Elevation 80 ft / 24 m (AMSL)
Location 53.333632° -2.849769°
Runways 1
Magnetic Variation 1.604° W

METAR

EGGP 261950Z 08012KT CAVOK 18/08 Q1021

Decode

TAF

TAF TAF EGGP 261655Z 2618/2718 07012KT 9999 FEW040 PROB40 TEMPO 2706/2718 4000 +SHRA +TSRA

Decode

Destination Runways

ID Width Length Bearing (true) Bearing (mag) Surface Threshold Offset Overrun Length
09 151 ft / 46 m 7,466 ft / 2,276 m 85.59° 87.19° Asphalt 180 ft / 55 m 0 ft / 0 m
27 151 ft / 46 m 7,466 ft / 2,276 m 265.61° 267.21° Asphalt 0 ft / 0 m 0 ft / 0 m

Approach Navaids

Runway Type Ident Frequency Range Bearing (true) Bearing (mag) Slope Elevation
09 Localiser ILVR 111.75 MHz 18 nm / 33 km 85.61° 87.22° - 77 ft / 23 m (AMSL)
09 Glidescope ILVR 111.75 MHz 10 nm / 19 km 85.60° 87.20° 3.00° 80 ft / 24 m (AMSL)
09 DME ILVR 111.75 MHz 18 nm / 33 km - - - 88 ft / 27 m (AMSL)
27 Localiser ILQ 111.75 MHz 18 nm / 33 km 265.05° 266.65° - 55 ft / 17 m (AMSL)
27 Glidescope ILQ 111.75 MHz 10 nm / 19 km 265.60° 267.20° 3.00° 80 ft / 24 m (AMSL)
27 DME ILQ 111.75 MHz 18 nm / 33 km - - - 88 ft / 27 m (AMSL)

Popular Alternatives